Hlavní strana
METAR-TAF:

METAR-TAF

Letiště :

Letiště Karlovy Vary

Karlovy Vary, Česká republika

zeměpisná šířka: 50-12N, zeměpisná délka: 012-55E, výška: 603 m

Aktuální stav počasí

Zpráva byla vytvořena před 48 minutami, v 00:00 UTC
Severovýchodní vítr 2 kt
Teplota -4°C
Vlhkost vzduchu 86%
Tlak 1019 hPa
Viditelnost 10 km a více
Žádná oblačnost pod 1500 m, nevyskytují se cumulonimby.

METAR: LKKV 230000Z 04002KT CAVOK M04/M06 Q1019

Čas: 02:48 (00:48 UTC)

Předpověď počasí

Zpráva byla vytvořena před 1 hodinou a 48 minutami, v 23:00 UTC
Předpověď platná od 23 v 00 UTC do 24 v 00 UTC
vítr z různých směrů 2 kt
Viditelnost 10 km a více
Žádná oblačnost pod 1500 m, nevyskytují se cumulonimby.
Dočasný
od 23 v 06 UTC do 23 v 13 UTC
Severovýchodní vítr 6 kt
Změna
od 23 v 16 UTC do 23 v 18 UTC
Viditelnost 10 km a více
Polojasno ve výšce 3500 ft

TAF: LKKV 222300Z 2300/2400 VRB02KT CAVOK TEMPO 2306/2313 05006KT BECMG 2316/2318 9999 SCT035

Stav a předpovědi počasí z více než 4 000 letišť (zprávy METAR a TAF).

Červené a žluté tečky na mapě představují dostupné meteorologické stanice.

Když kurzor umístíte na tečku, zobrazí se název stanice.

Pak kliknutím zobrazíte stav a předpověď počasí.

Chcete-li změnit mapu, kliknutím na zelené tlačítko se znaménkem +mapu přiblížíte, kliknutím na zelené tlačítko se znaménkem – mapu oddálíte a kliknutím na zelené šipky přejdete na sousední mapy.


METAR-TAF: